createdAt,value
2023-05-01T00:02:02.621Z,5.50
2023-05-01T00:04:29.686Z,9.10
2023-05-01T00:06:56.749Z,8.88
2023-05-01T00:09:23.715Z,4.15
2023-05-01T00:11:50.756Z,10.20
2023-05-01T00:14:18.072Z,8.88
2023-05-01T00:16:46.950Z,6.55
2023-05-01T00:19:18.320Z,8.50
2023-05-01T00:21:46.584Z,6.35
2023-05-01T00:24:17.102Z,5.93
2023-05-01T00:26:45.347Z,8.57
2023-05-01T00:29:16.776Z,7.28
2023-05-01T00:31:45.881Z,10.35
2023-05-01T00:34:13.270Z,10.10
2023-05-01T00:36:40.387Z,8.35
2023-05-01T00:39:10.039Z,9.75
2023-05-01T00:41:37.109Z,9.77
2023-05-01T00:44:04.113Z,8.38
2023-05-01T00:46:31.244Z,9.88
2023-05-01T00:48:58.844Z,7.85
2023-05-01T00:51:29.901Z,8.98
2023-05-01T00:54:00.380Z,7.53
2023-05-01T00:56:28.057Z,13.35
2023-05-01T00:58:55.530Z,10.93
2023-05-01T01:01:23.175Z,8.68
2023-05-01T01:03:54.521Z,9.50
2023-05-01T01:06:24.090Z,6.63
2023-05-01T01:09:09.685Z,9.63
2023-05-01T01:12:14.415Z,10.75
2023-05-01T01:14:47.543Z,8.73
2023-05-01T01:17:21.814Z,10.20
2023-05-01T01:20:01.975Z,9.90
2023-05-01T01:22:29.037Z,9.05
2023-05-01T01:25:12.991Z,8.18
2023-05-01T01:27:58.301Z,11.80
2023-05-01T01:30:49.578Z,10.85
2023-05-01T01:33:25.600Z,8.13
2023-05-01T01:35:58.726Z,7.60
2023-05-01T01:38:31.217Z,10.70
2023-05-01T01:41:07.658Z,11.10
2023-05-01T01:43:38.475Z,11.38
2023-05-01T01:46:06.832Z,6.57
2023-05-01T01:48:36.406Z,8.85
2023-05-01T01:51:07.436Z,16.08
2023-05-01T01:53:35.095Z,9.45
2023-05-01T01:56:03.752Z,13.80
2023-05-01T01:58:31.102Z,7.65
2023-05-01T02:00:58.473Z,9.43
2023-05-01T02:03:26.115Z,11.32
2023-05-01T02:05:55.043Z,14.07
2023-05-01T02:08:22.453Z,10.75
2023-05-01T02:10:49.501Z,10.45
2023-05-01T02:13:16.482Z,12.93
2023-05-01T02:15:44.825Z,8.70
2023-05-01T02:18:12.048Z,13.32
2023-05-01T02:20:39.032Z,6.03
2023-05-01T02:23:06.175Z,10.82
2023-05-01T02:25:33.890Z,6.25
2023-05-01T02:30:51.141Z,12.43
2023-05-01T02:33:33.604Z,13.10
2023-05-01T02:36:00.608Z,19.13
2023-05-01T02:38:27.699Z,7.93
2023-05-01T02:40:56.889Z,9.25
2023-05-01T02:43:24.183Z,11.65
2023-05-01T02:45:51.590Z,9.15
2023-05-01T02:48:21.889Z,12.35
2023-05-01T02:50:49.388Z,10.57
2023-05-01T02:53:16.759Z,11.25
2023-05-01T02:55:58.521Z,10.40
2023-05-01T02:58:25.975Z,13.55
2023-05-01T03:00:53.147Z,6.53
2023-05-01T03:03:20.683Z,10.63
2023-05-01T03:05:47.821Z,12.20
2023-05-01T03:08:15.182Z,10.85
2023-05-01T03:10:43.404Z,13.63
2023-05-01T03:13:11.321Z,18.13
2023-05-01T03:15:38.720Z,11.07
2023-05-01T03:18:05.892Z,9.85
2023-05-01T03:20:33.017Z,11.60
2023-05-01T03:23:00.267Z,13.95
2023-05-01T03:25:27.428Z,10.23
2023-05-01T03:27:55.321Z,11.15
2023-05-01T03:30:23.421Z,11.02
2023-05-01T03:32:51.740Z,12.52
2023-05-01T03:35:24.261Z,15.18
2023-05-01T03:37:52.128Z,12.40
2023-05-01T03:40:39.094Z,18.08
2023-05-01T03:43:24.808Z,16.20
2023-05-01T03:45:53.021Z,8.93
2023-05-01T03:48:20.366Z,11.43
2023-05-01T03:50:47.653Z,14.00
2023-05-01T03:53:15.335Z,10.45
2023-05-01T03:55:43.174Z,12.00
2023-05-01T03:58:11.046Z,13.45
2023-05-01T04:00:39.369Z,14.98
2023-05-01T04:03:06.804Z,13.85
2023-05-01T04:05:36.015Z,15.15
2023-05-01T04:08:04.466Z,11.10
2023-05-01T04:10:31.477Z,16.60
2023-05-01T04:13:05.073Z,11.55
2023-05-01T04:15:32.500Z,17.58
2023-05-01T04:17:59.695Z,13.48
2023-05-01T04:20:26.899Z,11.55
2023-05-01T04:22:54.967Z,18.48
2023-05-01T04:25:25.566Z,12.20
2023-05-01T04:27:57.419Z,12.95
2023-05-01T04:30:24.946Z,17.10
2023-05-01T04:32:52.098Z,16.50
2023-05-01T04:35:19.506Z,12.68
2023-05-01T04:37:57.268Z,13.05
2023-05-01T04:40:24.670Z,7.50
2023-05-01T04:42:52.893Z,7.05
2023-05-01T04:45:19.868Z,7.50
2023-05-01T04:47:47.267Z,11.88
2023-05-01T04:50:14.472Z,13.30
2023-05-01T04:52:51.227Z,6.80
2023-05-01T04:58:38.622Z,4.05
2023-05-01T05:01:18.099Z,4.07
2023-05-01T05:15:40.325Z,6.07
2023-05-01T05:18:13.339Z,4.05
2023-05-01T05:21:12.203Z,5.32
2023-05-01T05:24:09.491Z,2.13
2023-05-01T05:27:05.577Z,7.73
2023-05-01T05:29:37.434Z,2.92
2023-05-01T05:36:28.716Z,10.85
2023-05-01T05:39:03.563Z,8.43
2023-05-01T05:41:37.081Z,7.43
2023-05-01T05:44:04.580Z,7.63
2023-05-01T05:46:32.538Z,6.28
2023-05-01T05:49:01.870Z,2.03
2023-05-01T05:51:43.548Z,3.67
2023-05-01T05:54:31.097Z,2.20
2023-05-01T05:57:23.879Z,2.80
2023-05-01T05:59:58.220Z,4.43
2023-05-01T06:02:27.456Z,4.32
2023-05-01T06:04:54.569Z,6.38
2023-05-01T06:07:22.962Z,7.65
2023-05-01T06:09:50.325Z,1.95
2023-05-01T06:12:19.014Z,3.20
2023-05-01T06:14:46.611Z,3.88
2023-05-01T06:17:14.267Z,2.03
2023-05-01T06:19:41.478Z,3.50
2023-05-01T06:22:10.448Z,3.65
2023-05-01T06:24:44.665Z,4.60
2023-05-01T06:27:11.780Z,4.32
2023-05-01T06:29:38.778Z,1.88
2023-05-01T06:32:06.162Z,3.40
2023-05-01T06:34:33.325Z,5.82
2023-05-01T06:37:00.543Z,6.78
2023-05-01T06:39:27.459Z,4.93
2023-05-01T06:41:54.540Z,1.83
2023-05-01T06:47:01.778Z,5.50
2023-05-01T06:49:29.320Z,3.88
2023-05-01T06:51:56.355Z,5.18
2023-05-01T06:54:23.360Z,11.18
2023-05-01T06:56:51.603Z,7.22
2023-05-01T06:59:18.881Z,8.45
2023-05-01T07:01:46.045Z,7.32
2023-05-01T07:04:19.864Z,3.95
2023-05-01T07:06:46.951Z,4.85
2023-05-01T07:09:14.089Z,6.25
2023-05-01T07:11:42.379Z,5.45
2023-05-01T07:14:11.428Z,5.30
2023-05-01T07:16:40.660Z,5.93
2023-05-01T07:19:08.012Z,7.57
2023-05-01T07:21:35.029Z,3.13
2023-05-01T07:24:12.875Z,4.68
2023-05-01T07:26:41.806Z,6.03
2023-05-01T07:29:08.752Z,2.35
2023-05-01T07:31:40.405Z,2.47
2023-05-01T07:34:13.926Z,4.88
2023-05-01T07:36:41.766Z,3.28
2023-05-01T07:39:09.022Z,6.95
2023-05-01T07:41:35.952Z,3.55
2023-05-01T07:44:03.073Z,2.30
2023-05-01T07:46:30.334Z,3.05
2023-05-01T07:48:57.394Z,3.40
2023-05-01T07:51:24.353Z,11.48
2023-05-01T07:53:52.687Z,4.22
2023-05-01T07:56:19.946Z,3.10
2023-05-01T07:58:47.491Z,5.45
2023-05-01T08:01:14.734Z,6.07
2023-05-01T08:03:42.242Z,7.10
2023-05-01T08:06:09.823Z,3.88
2023-05-01T08:08:37.053Z,6.25
2023-05-01T08:11:04.556Z,6.22
2023-05-01T08:13:31.575Z,3.15
2023-05-01T08:16:05.002Z,5.53
2023-05-01T08:18:32.019Z,8.48
2023-05-01T08:20:59.221Z,13.13
2023-05-01T08:23:26.358Z,8.45
2023-05-01T08:25:53.806Z,3.50
2023-05-01T08:28:22.882Z,6.78
2023-05-01T08:30:50.266Z,4.57
2023-05-01T08:33:17.448Z,2.88
2023-05-01T08:35:45.755Z,3.95
2023-05-01T08:38:12.870Z,4.82
2023-05-01T08:40:41.539Z,8.70
2023-05-01T08:43:09.571Z,3.10
2023-05-01T08:45:37.845Z,3.03
2023-05-01T08:48:10.531Z,2.47
2023-05-01T08:50:37.785Z,5.75
2023-05-01T08:53:05.427Z,4.20
2023-05-01T08:55:32.686Z,7.43
2023-05-01T08:57:59.941Z,6.00
2023-05-01T09:00:27.256Z,7.28
2023-05-01T09:02:54.346Z,5.40
2023-05-01T09:05:21.400Z,6.40
2023-05-01T09:07:49.422Z,5.28
2023-05-01T09:10:18.046Z,2.75
2023-05-01T09:12:46.432Z,11.38
2023-05-01T09:15:13.631Z,8.30
2023-05-01T09:18:34.981Z,8.57
2023-05-01T09:21:02.166Z,3.60
2023-05-01T09:23:29.278Z,6.32
2023-05-01T09:25:56.301Z,2.42
2023-05-01T09:28:45.960Z,4.85
2023-05-01T09:31:25.955Z,5.75
2023-05-01T09:34:26.979Z,2.88
2023-05-01T09:36:54.141Z,8.35
2023-05-01T09:39:24.221Z,3.55
2023-05-01T09:41:52.444Z,7.75
2023-05-01T09:44:19.819Z,1.95
2023-05-01T09:46:47.289Z,1.73
2023-05-01T09:49:14.700Z,3.33
2023-05-01T09:51:42.543Z,0.50
2023-05-01T09:54:18.428Z,3.83
2023-05-01T09:56:48.796Z,2.58
2023-05-01T09:59:17.281Z,4.70
2023-05-01T10:01:47.408Z,3.50
2023-05-01T10:04:42.205Z,2.45
2023-05-01T10:07:15.930Z,1.25
2023-05-01T10:09:43.386Z,3.13
2023-05-01T10:12:11.001Z,1.92
2023-05-01T10:14:52.375Z,3.25
2023-05-01T10:17:22.018Z,3.17
2023-05-01T10:19:49.340Z,5.47
2023-05-01T10:22:16.448Z,3.35
2023-05-01T10:24:43.993Z,4.03
2023-05-01T10:27:11.608Z,2.20
2023-05-01T10:29:40.547Z,2.35
2023-05-01T10:32:08.776Z,2.83
2023-05-01T10:34:38.006Z,3.85
2023-05-01T10:37:10.245Z,3.42
2023-05-01T10:39:42.206Z,3.95
2023-05-01T10:42:16.500Z,1.65
2023-05-01T10:44:43.970Z,2.50
2023-05-01T10:47:34.940Z,4.30
2023-05-01T10:50:06.299Z,5.53
2023-05-01T10:53:12.512Z,1.13
2023-05-01T10:56:06.778Z,6.93
2023-05-01T10:58:57.960Z,5.00
2023-05-01T11:01:32.658Z,10.45
2023-05-01T11:04:05.129Z,1.58
2023-05-01T11:06:33.010Z,2.53
2023-05-01T11:09:04.741Z,5.55
2023-05-01T11:11:31.843Z,2.40
2023-05-01T11:14:04.876Z,4.00
2023-05-01T11:16:49.492Z,2.70
2023-05-01T11:19:22.791Z,2.35
2023-05-01T11:21:50.985Z,1.75
2023-05-01T11:24:19.195Z,1.63
2023-05-01T11:26:47.356Z,0.68
2023-05-01T11:29:14.880Z,2.15
2023-05-01T11:31:43.453Z,0.90
2023-05-01T11:34:10.568Z,0.10
2023-05-01T11:36:49.296Z,1.33
2023-05-01T11:39:19.891Z,1.27
2023-05-01T11:41:47.419Z,1.85
2023-05-01T11:44:18.262Z,2.83
2023-05-01T11:46:45.354Z,0.68
2023-05-01T11:49:12.372Z,6.53
2023-05-01T11:51:39.395Z,0.10
2023-05-01T11:54:11.808Z,7.65
2023-05-01T11:56:41.245Z,0.95
2023-05-01T11:59:13.192Z,5.35
2023-05-01T12:01:41.160Z,1.10
2023-05-01T12:04:08.756Z,2.13
2023-05-01T12:06:45.551Z,2.63
2023-05-01T12:09:42.532Z,1.00
2023-05-01T12:14:36.539Z,0.88
2023-05-01T12:17:04.187Z,2.40
2023-05-01T12:19:57.070Z,1.05
2023-05-01T12:22:24.046Z,1.10
2023-05-01T12:24:54.295Z,1.15
2023-05-01T12:27:21.400Z,7.70
2023-05-01T12:29:48.526Z,0.43
2023-05-01T12:32:15.831Z,0.10
2023-05-01T12:34:47.344Z,2.25
2023-05-01T12:37:14.469Z,2.47
2023-05-01T12:39:44.532Z,0.63
2023-05-01T12:42:13.100Z,3.13
2023-05-01T12:44:40.733Z,11.00
2023-05-01T12:47:08.324Z,3.00
2023-05-01T12:49:37.480Z,7.32
2023-05-01T12:52:08.833Z,1.02
2023-05-01T12:54:40.904Z,0.65
2023-05-01T12:57:10.617Z,7.97
2023-05-01T12:59:39.226Z,0.70
2023-05-01T13:02:10.647Z,0.70
2023-05-01T13:04:38.430Z,2.92
2023-05-01T13:07:25.834Z,0.65
2023-05-01T13:09:56.302Z,1.38
2023-05-01T13:12:30.350Z,0.20
2023-05-01T13:14:57.555Z,0.55
2023-05-01T13:17:35.985Z,0.13
2023-05-01T13:20:16.767Z,0.13
2023-05-01T13:23:07.891Z,2.90
2023-05-01T13:25:43.415Z,1.30
2023-05-01T13:31:47.252Z,0.20
2023-05-01T13:34:19.189Z,0.68
2023-05-01T13:36:49.246Z,0.77
2023-05-01T13:39:21.388Z,1.83
2023-05-01T13:41:49.602Z,0.93
2023-05-01T13:44:31.693Z,0.20
2023-05-01T13:47:02.787Z,0.52
2023-05-01T13:49:29.902Z,2.00
2023-05-01T13:51:57.897Z,2.22
2023-05-01T13:54:55.559Z,0.73
2023-05-01T13:57:23.113Z,0.22
2023-05-01T13:59:50.118Z,0.13
2023-05-01T14:02:22.036Z,2.60
2023-05-01T14:04:49.476Z,0.10
2023-05-01T14:07:20.401Z,1.15
2023-05-01T14:10:08.585Z,0.10
2023-05-01T14:12:35.650Z,0.30
2023-05-01T14:15:03.774Z,2.13
2023-05-01T14:17:33.247Z,2.17
2023-05-01T14:20:00.948Z,0.63
2023-05-01T14:22:47.348Z,0.75
2023-05-01T14:25:22.336Z,0.10
2023-05-01T14:27:50.073Z,0.10
2023-05-01T14:30:30.182Z,0.90
2023-05-01T14:32:57.382Z,0.17
2023-05-01T14:35:24.821Z,0.00
2023-05-01T14:37:52.116Z,0.25
2023-05-01T14:40:22.442Z,0.73
2023-05-01T14:42:49.566Z,0.43
2023-05-01T14:45:17.183Z,0.85
2023-05-01T14:47:46.228Z,0.25
2023-05-01T14:50:18.787Z,0.77
2023-05-01T14:52:56.341Z,0.10
2023-05-01T14:55:34.980Z,1.38
2023-05-01T14:58:02.288Z,1.75
2023-05-01T15:00:29.567Z,0.17
2023-05-01T15:02:58.862Z,0.50
2023-05-01T15:05:26.739Z,0.22
2023-05-01T15:07:56.366Z,1.83
2023-05-01T15:10:23.979Z,1.45
2023-05-01T15:12:51.398Z,1.02
2023-05-01T15:15:18.549Z,2.28
2023-05-01T15:17:46.396Z,3.03
2023-05-01T15:20:14.108Z,1.40
2023-05-01T15:22:41.237Z,1.95
2023-05-01T15:25:14.830Z,0.38
2023-05-01T15:27:42.928Z,0.15
2023-05-01T15:30:11.466Z,1.02
2023-05-01T15:32:38.719Z,0.00
2023-05-01T15:35:05.857Z,0.35
2023-05-01T15:37:33.089Z,0.52
2023-05-01T15:40:00.546Z,5.40
2023-05-01T15:42:28.239Z,1.95
2023-05-01T15:44:55.659Z,0.57
2023-05-01T15:47:22.978Z,3.05
2023-05-01T15:49:50.478Z,0.55
2023-05-01T15:52:17.763Z,0.00
2023-05-01T15:54:47.220Z,0.20
2023-05-01T15:57:15.013Z,1.45
2023-05-01T16:00:15.364Z,0.03
2023-05-01T16:02:42.701Z,0.30
2023-05-01T16:05:10.406Z,0.30
2023-05-01T16:07:38.439Z,0.47
2023-05-01T16:10:06.467Z,0.80
2023-05-01T16:12:33.620Z,0.43
2023-05-01T16:15:04.964Z,1.10
2023-05-01T16:17:34.018Z,0.43
2023-05-01T16:20:02.420Z,1.30
2023-05-01T16:22:30.090Z,2.58
2023-05-01T16:24:59.439Z,0.68
2023-05-01T16:27:30.725Z,0.65
2023-05-01T16:29:58.374Z,0.20
2023-05-01T16:32:26.045Z,0.30
2023-05-01T16:34:53.253Z,0.20
2023-05-01T16:37:29.936Z,0.77
2023-05-01T16:39:59.482Z,0.10
2023-05-01T16:42:28.483Z,1.30
2023-05-01T16:44:56.833Z,0.50
2023-05-01T16:47:23.877Z,0.10
2023-05-01T16:49:52.449Z,4.15
2023-05-01T16:52:19.989Z,0.30
2023-05-01T16:55:08.085Z,0.75
2023-05-01T16:57:35.596Z,1.27
2023-05-01T17:00:59.941Z,4.97
2023-05-01T17:03:27.340Z,0.43
2023-05-01T17:05:55.630Z,1.55
2023-05-01T17:08:22.696Z,4.40
2023-05-01T17:10:50.005Z,0.35
2023-05-01T17:13:17.904Z,3.10
2023-05-01T17:15:45.246Z,1.38
2023-05-01T17:18:12.370Z,0.10
2023-05-01T17:20:39.793Z,0.10
2023-05-01T17:23:10.027Z,0.32
2023-05-01T17:25:37.011Z,2.70
2023-05-01T17:28:04.152Z,1.55
2023-05-01T17:30:31.639Z,0.10
2023-05-01T17:32:58.841Z,0.47
2023-05-01T17:35:26.340Z,0.40
2023-05-01T17:37:53.752Z,0.50
2023-05-01T17:40:21.777Z,4.40
2023-05-01T17:42:49.101Z,0.73
2023-05-01T17:45:16.371Z,0.20
2023-05-01T17:47:44.977Z,0.20
2023-05-01T17:50:13.626Z,3.50
2023-05-01T17:52:45.102Z,0.52
2023-05-01T17:55:13.057Z,8.30
2023-05-01T17:57:40.940Z,0.13
2023-05-01T18:00:08.947Z,0.65
2023-05-01T18:02:44.911Z,0.28
2023-05-01T18:05:13.330Z,0.73
2023-05-01T18:07:40.974Z,0.22
2023-05-01T18:10:08.817Z,0.90
2023-05-01T18:12:35.929Z,1.02
2023-05-01T18:15:03.042Z,0.88
2023-05-01T18:17:33.092Z,0.20
2023-05-01T18:20:00.819Z,0.95
2023-05-01T18:22:31.527Z,5.60
2023-05-01T18:24:58.600Z,1.80
2023-05-01T18:27:26.034Z,0.35
2023-05-01T18:29:57.338Z,0.85
2023-05-01T18:32:32.946Z,8.35
2023-05-01T18:35:07.006Z,2.05
2023-05-01T18:37:34.658Z,3.75
2023-05-01T18:40:33.297Z,0.80
2023-05-01T18:43:00.633Z,0.32
2023-05-01T18:45:27.784Z,0.93
2023-05-01T18:47:54.864Z,1.00
2023-05-01T18:51:00.793Z,0.60
2023-05-01T18:53:43.524Z,0.30
2023-05-01T18:56:16.582Z,0.75
2023-05-01T18:58:59.805Z,0.93
2023-05-01T19:01:48.178Z,0.55
2023-05-01T19:05:08.145Z,0.47
2023-05-01T19:07:36.266Z,0.70
2023-05-01T19:10:05.684Z,1.00
2023-05-01T19:12:33.437Z,0.95
2023-05-01T19:15:01.990Z,0.32
2023-05-01T19:17:32.069Z,0.20
2023-05-01T19:20:11.752Z,0.95
2023-05-01T19:22:40.054Z,3.50
2023-05-01T19:25:11.398Z,0.55
2023-05-01T19:27:41.549Z,1.73
2023-05-01T19:30:09.826Z,0.60
2023-05-01T19:32:40.456Z,1.35
2023-05-01T19:35:10.509Z,2.78
2023-05-01T19:37:41.578Z,1.23
2023-05-01T19:40:09.540Z,0.40
2023-05-01T19:42:36.925Z,2.03
2023-05-01T19:45:04.264Z,6.20
2023-05-01T19:47:32.255Z,5.38
2023-05-01T19:50:02.188Z,0.30
2023-05-01T19:52:30.721Z,1.17
2023-05-01T19:54:58.430Z,1.65
2023-05-01T19:57:27.109Z,0.38
2023-05-01T19:59:55.519Z,0.60
2023-05-01T20:02:22.683Z,0.30
2023-05-01T20:04:49.859Z,0.80
2023-05-01T20:07:18.515Z,1.00
2023-05-01T20:09:46.049Z,0.32
2023-05-01T20:12:13.400Z,1.83
2023-05-01T20:14:42.828Z,0.55
2023-05-01T20:17:10.150Z,0.82
2023-05-01T20:19:39.847Z,0.22
2023-05-01T20:22:07.309Z,1.75
2023-05-01T20:24:34.319Z,1.63
2023-05-01T20:27:02.640Z,1.52
2023-05-01T20:29:29.821Z,2.00
2023-05-01T20:31:58.185Z,0.30
2023-05-01T20:34:25.200Z,4.57
2023-05-01T20:36:52.326Z,0.70
2023-05-01T20:39:19.312Z,0.80
2023-05-01T20:41:46.229Z,1.50
2023-05-01T20:44:13.368Z,0.77
2023-05-01T20:46:47.720Z,1.80
2023-05-01T20:49:16.343Z,0.33
2023-05-01T20:51:44.625Z,0.60
2023-05-01T20:54:11.904Z,1.00
2023-05-01T20:56:39.071Z,1.63
2023-05-01T20:59:06.700Z,4.65
2023-05-01T21:01:33.806Z,2.38
2023-05-01T21:04:01.494Z,0.50
2023-05-01T21:06:31.570Z,0.20
2023-05-01T21:09:01.742Z,0.63
2023-05-01T21:11:29.210Z,0.20
2023-05-01T21:13:57.780Z,0.55
2023-05-01T21:16:27.821Z,4.30
2023-05-01T21:18:55.148Z,0.30
2023-05-01T21:21:22.179Z,7.15
2023-05-01T21:23:50.845Z,1.05
2023-05-01T21:26:19.671Z,5.28
2023-05-01T21:28:46.730Z,1.05
2023-05-01T21:31:13.938Z,4.57
2023-05-01T21:33:42.025Z,1.85
2023-05-01T21:36:09.241Z,0.20
2023-05-01T21:38:37.622Z,0.20
2023-05-01T21:41:04.835Z,1.27
2023-05-01T21:43:33.923Z,0.15
2023-05-01T21:46:01.436Z,1.15
2023-05-01T21:48:28.990Z,2.28
2023-05-01T21:50:57.770Z,6.45
2023-05-01T21:53:25.353Z,3.05
2023-05-01T21:55:52.514Z,3.03
2023-05-01T21:58:19.516Z,4.60
2023-05-01T22:00:49.891Z,4.00
2023-05-01T22:03:18.116Z,2.15
2023-05-01T22:05:45.553Z,0.55
2023-05-01T22:08:12.853Z,0.10
2023-05-01T22:10:42.015Z,1.95
2023-05-01T22:13:11.483Z,0.30
2023-05-01T22:15:41.790Z,0.77
2023-05-01T22:18:08.791Z,0.38
2023-05-01T22:20:35.822Z,0.35
2023-05-01T22:23:03.074Z,1.08
2023-05-01T22:25:30.567Z,0.95
2023-05-01T22:28:00.446Z,1.85
2023-05-01T22:30:29.684Z,1.98
2023-05-01T22:32:58.740Z,0.10
2023-05-01T22:35:26.139Z,0.10
2023-05-01T22:37:53.312Z,8.85
2023-05-01T22:40:20.823Z,1.05
2023-05-01T22:42:49.439Z,0.47
2023-05-01T22:45:17.314Z,0.25
2023-05-01T22:47:44.337Z,0.38
2023-05-01T22:50:12.063Z,0.28
2023-05-01T22:52:39.058Z,1.20
2023-05-01T22:55:06.573Z,0.98
2023-05-01T22:57:33.891Z,0.45
2023-05-01T23:00:01.229Z,2.17
2023-05-01T23:02:28.863Z,0.55
2023-05-01T23:04:56.092Z,0.55
2023-05-01T23:07:23.141Z,1.50
2023-05-01T23:09:50.090Z,0.22
2023-05-01T23:12:20.160Z,1.10
2023-05-01T23:14:47.603Z,0.35
2023-05-01T23:17:14.946Z,1.27
2023-05-01T23:19:44.931Z,0.20
2023-05-01T23:22:15.404Z,0.55
2023-05-01T23:24:44.662Z,2.58
2023-05-01T23:27:13.488Z,1.75
2023-05-01T23:29:40.936Z,2.15
2023-05-01T23:32:41.878Z,1.33
2023-05-01T23:35:14.282Z,1.58
2023-05-01T23:37:47.087Z,0.40
2023-05-01T23:40:45.825Z,1.85
2023-05-01T23:43:13.418Z,0.68
2023-05-01T23:45:40.913Z,2.33
2023-05-01T23:48:08.101Z,0.85
2023-05-01T23:50:35.550Z,0.47
2023-05-01T23:53:06.156Z,1.00
2023-05-01T23:55:34.543Z,0.47
2023-05-01T23:58:01.919Z,0.55
